William J. Weber — WDC6537 — position and weather

sailwx.info

Track history (hours):
 
Tides and Currents Weather Stations Pressure Air Temp Water Temp Dewpoint Dewpoint Depression Visibility Wind Speed Wind Dir Waves Ship Positions

William J. Weber

Owner: American Commercial Lines LLC, Jeffersonville, IN. More information available from US FCC via Universal Licensing System and Coast Guard Vessel Documentation Center.

Last reported at 2016-Jan-19 10:12 UTC. Time now 2016-Feb-07 23:45 UTC.
Position N 29°53' W 092°24'.
Warning: this ship's position is 19 days out of date.

Length 23 m.

Type: Towing. MMSI: 367057640.

Date/timePositionNaut miles runAvg speedWind from/ knotsBaromVisibWave heightAir tempDewpointWater temp
2016-Jan-19 10:12N 29°53' W 092°24'5 7.1
2016-Jan-19 09:30N 29°54' W 092°29'7 7.0
2016-Jan-19 08:28N 29°55' W 092°37'7 6.8
2016-Jan-19 07:25N 29°58' W 092°45'12 6.6
2016-Jan-19 05:34N 29°56' W 092°59'7 6.6
2016-Jan-19 04:34N 29°56' W 093°07'5 5.2
2016-Jan-19 03:34N 29°59' W 093°12'5 5.5
2016-Jan-19 02:34N 30°03' W 093°16'4 4.1
2016-Jan-19 01:34N 30°06' W 093°19'3 3.5
2016-Jan-19 00:33N 30°04' W 093°22'8 7.9
2016-Jan-18 23:34N 30°04' W 093°31'8 8.1
2016-Jan-18 22:34N 30°04' W 093°41'11 1.6
2016-Jan-18 15:33N 29°57' W 093°52'0 0.0
2016-Jan-18 14:34N 29°57' W 093°52'0 0.0
2016-Jan-18 13:33N 29°57' W 093°52'0 0.0
2016-Jan-18 12:32N 29°57' W 093°52'0 0.0
2016-Jan-18 10:27N 29°57' W 093°52'0 0.0
2016-Jan-18 07:04N 29°57' W 093°52'0 0.0
2016-Jan-16 22:28N 29°57' W 093°52'0 0.0
2016-Jan-16 15:07N 29°57' W 093°52'0 0.0
2016-Jan-16 14:34N 29°57' W 093°52'0 0.0
2016-Jan-16 13:14N 29°57' W 093°52'0 0.0
2016-Jan-16 12:32N 29°57' W 093°52'0 0.0
2016-Jan-16 11:33N 29°57' W 093°52'0 0.0
2016-Jan-16 10:32N 29°57' W 093°52'0 0.0
2016-Jan-16 09:34N 29°57' W 093°52'0 0.0
2016-Jan-16 08:32N 29°57' W 093°52'0 0.0
2016-Jan-16 07:25N 29°57' W 093°52'0 0.0
2016-Jan-16 06:10N 29°57' W 093°52'0 0.0
2016-Jan-16 05:32N 29°57' W 093°52'0 0.0
2016-Jan-16 04:04N 29°57' W 093°52'1 0.0
2016-Jan-14 19:07N 29°58' W 093°52'0 0.0
2016-Jan-14 17:12N 29°58' W 093°52'1 0.4
2016-Jan-14 14:28N 29°57' W 093°52'0 0.5
2016-Jan-14 13:34N 29°57' W 093°52'0 0.0
2016-Jan-14 12:34N 29°57' W 093°52'0 0.0
2016-Jan-14 11:33N 29°57' W 093°52'0 0.0
2016-Jan-14 10:30N 29°57' W 093°52'0 0.0
2016-Jan-14 09:33N 29°57' W 093°52'0 0.0
2016-Jan-14 08:34N 29°57' W 093°52'0 0.0
2016-Jan-14 07:30N 29°57' W 093°52'0 0.0
2016-Jan-14 04:07N 29°57' W 093°52'0 0.0
2016-Jan-14 03:32N 29°57' W 093°52'0 0.0
2016-Jan-14 01:33N 29°57' W 093°52'0 0.0
2016-Jan-14 00:34N 29°57' W 093°52'0 0.1
2016-Jan-13 19:21N 29°57' W 093°52'1 1.6
2016-Jan-13 18:34N 29°58' W 093°52'0 0.0
2016-Jan-13 17:33N 29°58' W 093°52'1 0.6
2016-Jan-13 16:11N 29°57' W 093°52'0 0.0
2016-Jan-13 15:34N 29°57' W 093°52'0 0.0
2016-Jan-13 14:04N 29°57' W 093°52'0 0.0
2016-Jan-13 13:33N 29°57' W 093°52'0 0.0
2016-Jan-13 12:14N 29°57' W 093°52'0 0.0
2016-Jan-13 11:31N 29°57' W 093°52'0 0.0
2016-Jan-13 10:33N 29°57' W 093°52'0 0.0
2016-Jan-13 09:34N 29°57' W 093°52'0 0.0
2016-Jan-13 08:31N 29°57' W 093°52'0 0.0
2016-Jan-13 07:25N 29°57' W 093°52'0 0.0
2016-Jan-13 06:34N 29°57' W 093°52'0 0.0
2016-Jan-13 05:32N 29°57' W 093°52'0 0.0
2016-Jan-13 04:33N 29°57' W 093°52'0 0.0
2016-Jan-13 03:34N 29°57' W 093°52'0 0.0
2016-Jan-12 16:33N 29°57' W 093°52'0 0.0
2016-Jan-12 15:33N 29°57' W 093°52'0 0.0
2016-Jan-12 14:33N 29°57' W 093°52'0 0.0
2016-Jan-12 13:33N 29°57' W 093°52'0 0.0
2016-Jan-12 12:33N 29°57' W 093°52'0 0.0
2016-Jan-12 11:33N 29°57' W 093°52'0 0.0
2016-Jan-12 10:33N 29°57' W 093°52'0 0.0
2016-Jan-12 09:28N 29°57' W 093°52'0 0.0
2016-Jan-12 07:33N 29°57' W 093°52'0 0.0
2016-Jan-12 05:20N 29°57' W 093°52'0 0.0
2016-Jan-11 09:19N 29°57' W 093°52'0 0.0
2016-Jan-11 07:07N 29°57' W 093°52'  
Track history (hours):
 
Tides and Currents Weather Stations Pressure Air Temp Water Temp Dewpoint Dewpoint Depression Visibility Wind Speed Wind Dir Waves Ship Positions

William J. Weber

Owner: American Commercial Lines LLC, Jeffersonville, IN. More information available from US FCC via Universal Licensing System and Coast Guard Vessel Documentation Center.

Last reported at 2016-Jan-19 10:12 UTC. Time now 2016-Feb-07 23:45 UTC.
Position N 29°53' W 092°24'.
Warning: this ship's position is 19 days out of date.

Length 23 m.

Type: Towing. MMSI: 367057640.

Date/timePositionNaut miles runAvg speedWind from/ knotsBaromVisibWave heightAir tempDewpointWater temp
2016-Jan-19 10:12N 29°53' W 092°24'5 7.1
2016-Jan-19 09:30N 29°54' W 092°29'7 7.0
2016-Jan-19 08:28N 29°55' W 092°37'7 6.8
2016-Jan-19 07:25N 29°58' W 092°45'12 6.6
2016-Jan-19 05:34N 29°56' W 092°59'7 6.6
2016-Jan-19 04:34N 29°56' W 093°07'5 5.2
2016-Jan-19 03:34N 29°59' W 093°12'5 5.5
2016-Jan-19 02:34N 30°03' W 093°16'4 4.1
2016-Jan-19 01:34N 30°06' W 093°19'3 3.5
2016-Jan-19 00:33N 30°04' W 093°22'8 7.9
2016-Jan-18 23:34N 30°04' W 093°31'8 8.1
2016-Jan-18 22:34N 30°04' W 093°41'11 1.6
2016-Jan-18 15:33N 29°57' W 093°52'0 0.0
2016-Jan-18 14:34N 29°57' W 093°52'0 0.0
2016-Jan-18 13:33N 29°57' W 093°52'0 0.0
2016-Jan-18 12:32N 29°57' W 093°52'0 0.0
2016-Jan-18 10:27N 29°57' W 093°52'0 0.0
2016-Jan-18 07:04N 29°57' W 093°52'0 0.0
2016-Jan-16 22:28N 29°57' W 093°52'0 0.0
2016-Jan-16 15:07N 29°57' W 093°52'0 0.0
2016-Jan-16 14:34N 29°57' W 093°52'0 0.0
2016-Jan-16 13:14N 29°57' W 093°52'0 0.0
2016-Jan-16 12:32N 29°57' W 093°52'0 0.0
2016-Jan-16 11:33N 29°57' W 093°52'0 0.0
2016-Jan-16 10:32N 29°57' W 093°52'0 0.0
2016-Jan-16 09:34N 29°57' W 093°52'0 0.0
2016-Jan-16 08:32N 29°57' W 093°52'0 0.0
2016-Jan-16 07:25N 29°57' W 093°52'0 0.0
2016-Jan-16 06:10N 29°57' W 093°52'0 0.0
2016-Jan-16 05:32N 29°57' W 093°52'0 0.0
2016-Jan-16 04:04N 29°57' W 093°52'1 0.0
2016-Jan-14 19:07N 29°58' W 093°52'0 0.0
2016-Jan-14 17:12N 29°58' W 093°52'1 0.4
2016-Jan-14 14:28N 29°57' W 093°52'0 0.5
2016-Jan-14 13:34N 29°57' W 093°52'0 0.0
2016-Jan-14 12:34N 29°57' W 093°52'0 0.0
2016-Jan-14 11:33N 29°57' W 093°52'0 0.0
2016-Jan-14 10:30N 29°57' W 093°52'0 0.0
2016-Jan-14 09:33N 29°57' W 093°52'0 0.0
2016-Jan-14 08:34N 29°57' W 093°52'0 0.0
2016-Jan-14 07:30N 29°57' W 093°52'0 0.0
2016-Jan-14 04:07N 29°57' W 093°52'0 0.0
2016-Jan-14 03:32N 29°57' W 093°52'0 0.0
2016-Jan-14 01:33N 29°57' W 093°52'0 0.0
2016-Jan-14 00:34N 29°57' W 093°52'0 0.1
2016-Jan-13 19:21N 29°57' W 093°52'1 1.6
2016-Jan-13 18:34N 29°58' W 093°52'0 0.0
2016-Jan-13 17:33N 29°58' W 093°52'1 0.6
2016-Jan-13 16:11N 29°57' W 093°52'0 0.0
2016-Jan-13 15:34N 29°57' W 093°52'0 0.0
2016-Jan-13 14:04N 29°57' W 093°52'0 0.0
2016-Jan-13 13:33N 29°57' W 093°52'0 0.0
2016-Jan-13 12:14N 29°57' W 093°52'0 0.0
2016-Jan-13 11:31N 29°57' W 093°52'0 0.0
2016-Jan-13 10:33N 29°57' W 093°52'0 0.0
2016-Jan-13 09:34N 29°57' W 093°52'0 0.0
2016-Jan-13 08:31N 29°57' W 093°52'0 0.0
2016-Jan-13 07:25N 29°57' W 093°52'0 0.0
2016-Jan-13 06:34N 29°57' W 093°52'0 0.0
2016-Jan-13 05:32N 29°57' W 093°52'0 0.0
2016-Jan-13 04:33N 29°57' W 093°52'0 0.0
2016-Jan-13 03:34N 29°57' W 093°52'0 0.0
2016-Jan-12 16:33N 29°57' W 093°52'0 0.0
2016-Jan-12 15:33N 29°57' W 093°52'0 0.0
2016-Jan-12 14:33N 29°57' W 093°52'0 0.0
2016-Jan-12 13:33N 29°57' W 093°52'0 0.0
2016-Jan-12 12:33N 29°57' W 093°52'0 0.0
2016-Jan-12 11:33N 29°57' W 093°52'0 0.0
2016-Jan-12 10:33N 29°57' W 093°52'0 0.0
2016-Jan-12 09:28N 29°57' W 093°52'0 0.0
2016-Jan-12 07:33N 29°57' W 093°52'0 0.0
2016-Jan-12 05:20N 29°57' W 093°52'0 0.0
2016-Jan-11 09:19N 29°57' W 093°52'0 0.0
2016-Jan-11 07:07N 29°57' W 093°52'  

Dump ship's entire track history